AAL3071 MDLR-KMIA
Flight info
| Callsign | AAL3071 |
|---|---|
| Flight time | N/A |
| Altitude | 36000 |
| Route | KERSO2K KERSO DCT MALVN Y261 MADIZ VIICE2 |
| Aircraft | A21N/M-SDE2E3FGHIRWXY/LB1 |
Departure
| Time | 2026-04-22 11:04 |
|---|---|
| Airport | Casa De Campo International Airport (MDLR) |
Arrival
| Time | N/A |
|---|---|
| Airport | Miami International Airport (KMIA) |
| Time | Latitude | Longitude | Altitude | Speed | Heading |
|---|---|---|---|---|---|
| 2026-04-22 10:28 | 18.44942 | -68.91330 | 226 ft | 0 kts | 187° |
| 2026-04-22 10:55 | 18.44947 | -68.91330 | 226 ft | 4 kts | 188° |
| 2026-04-22 10:56 | 18.44973 | -68.91323 | 226 ft | 4 kts | 201° |
| 2026-04-22 10:56 | 18.44996 | -68.91311 | 226 ft | 4 kts | 219° |
| 2026-04-22 10:56 | 18.45014 | -68.91290 | 226 ft | 4 kts | 243° |
| 2026-04-22 10:56 | 18.45021 | -68.91264 | 226 ft | 5 kts | 267° |
| 2026-04-22 10:57 | 18.45021 | -68.91244 | 226 ft | 0 kts | 277° |
| 2026-04-22 11:00 | 18.45022 | -68.91253 | 226 ft | 2 kts | 277° |
| 2026-04-22 11:00 | 18.45025 | -68.91283 | 226 ft | 6 kts | 276° |
| 2026-04-22 11:00 | 18.45032 | -68.91346 | 226 ft | 10 kts | 277° |
| 2026-04-22 11:00 | 18.45042 | -68.91426 | 223 ft | 11 kts | 277° |
| 2026-04-22 11:01 | 18.45052 | -68.91512 | 223 ft | 13 kts | 277° |
| 2026-04-22 11:01 | 18.45071 | -68.91609 | 223 ft | 15 kts | 325° |
| 2026-04-22 11:01 | 18.45182 | -68.91602 | 226 ft | 17 kts | 5° |
| 2026-04-22 11:01 | 18.45299 | -68.91626 | 229 ft | 20 kts | 287° |
| 2026-04-22 11:02 | 18.45325 | -68.91774 | 227 ft | 21 kts | 276° |
| 2026-04-22 11:02 | 18.45342 | -68.91933 | 226 ft | 23 kts | 276° |
| 2026-04-22 11:02 | 18.45362 | -68.92104 | 228 ft | 25 kts | 277° |
| 2026-04-22 11:02 | 18.45384 | -68.92287 | 226 ft | 26 kts | 277° |
| 2026-04-22 11:03 | 18.45385 | -68.92422 | 227 ft | 18 kts | 250° |
| 2026-04-22 11:03 | 18.45407 | -68.92457 | 225 ft | 14 kts | 92° |
| 2026-04-22 11:03 | 18.45398 | -68.92405 | 225 ft | 0 kts | 95° |
| 2026-04-22 11:03 | 18.45396 | -68.92382 | 225 ft | 21 kts | 96° |
| 2026-04-22 11:04 | 18.45347 | -68.91955 | 227 ft | 95 kts | 97° |
| 2026-04-22 11:04 | 18.45281 | -68.91400 | 225 ft | 135 kts | 97° |
| 2026-04-22 11:04 | 18.45108 | -68.89879 | 614 ft | 162 kts | 96° |
| 2026-04-22 11:04 | 18.45000 | -68.88676 | 1170 ft | 168 kts | 95° |
| 2026-04-22 11:05 | 18.44902 | -68.87423 | 1719 ft | 178 kts | 97° |
| 2026-04-22 11:05 | 18.44686 | -68.86077 | 2223 ft | 197 kts | 98° |
| 2026-04-22 11:05 | 18.44718 | -68.84544 | 2671 ft | 228 kts | 71° |
| 2026-04-22 11:05 | 18.45659 | -68.83114 | 3199 ft | 252 kts | 37° |
| 2026-04-22 11:06 | 18.47321 | -68.82444 | 4015 ft | 264 kts | 6° |
| 2026-04-22 11:06 | 18.49133 | -68.82765 | 4627 ft | 270 kts | 336° |
| 2026-04-22 11:06 | 18.50584 | -68.84015 | 4953 ft | 274 kts | 306° |
| 2026-04-22 11:06 | 18.51323 | -68.85863 | 5032 ft | 276 kts | 286° |
| 2026-04-22 11:07 | 18.51859 | -68.87802 | 5024 ft | 275 kts | 294° |
| 2026-04-22 11:07 | 18.53008 | -68.89373 | 5003 ft | 272 kts | 325° |
| 2026-04-22 11:07 | 18.54713 | -68.90188 | 5029 ft | 270 kts | 343° |
| 2026-04-22 11:07 | 18.56506 | -68.90762 | 5392 ft | 270 kts | 344° |
| 2026-04-22 11:08 | 18.58307 | -68.91350 | 5867 ft | 272 kts | 343° |
| 2026-04-22 11:08 | 18.60113 | -68.91962 | 6342 ft | 273 kts | 343° |
| 2026-04-22 11:08 | 18.61922 | -68.92593 | 6837 ft | 275 kts | 342° |
| 2026-04-22 11:08 | 18.63738 | -68.93248 | 7334 ft | 277 kts | 340° |
| 2026-04-22 11:09 | 18.65432 | -68.94242 | 7819 ft | 282 kts | 320° |
| 2026-04-22 11:09 | 18.66654 | -68.95860 | 8334 ft | 286 kts | 302° |
| 2026-04-22 11:09 | 18.67615 | -68.97703 | 8829 ft | 288 kts | 299° |
| 2026-04-22 11:09 | 18.68560 | -68.99578 | 9340 ft | 290 kts | 299° |
| 2026-04-22 11:10 | 18.69515 | -69.01459 | 9841 ft | 291 kts | 300° |
| 2026-04-22 11:10 | 18.70496 | -69.03361 | 10267 ft | 310 kts | 300° |
| 2026-04-22 11:10 | 18.71576 | -69.05428 | 10612 ft | 334 kts | 300° |
| 2026-04-22 11:10 | 18.72730 | -69.07643 | 11025 ft | 353 kts | 300° |
| 2026-04-22 11:11 | 18.73927 | -69.09935 | 11782 ft | 359 kts | 300° |
| 2026-04-22 11:11 | 18.75159 | -69.12283 | 12652 ft | 362 kts | 300° |
| 2026-04-22 11:11 | 18.76365 | -69.14581 | 13487 ft | 365 kts | 299° |
| 2026-04-22 11:11 | 18.77598 | -69.16928 | 14294 ft | 368 kts | 299° |
| 2026-04-22 11:12 | 18.78838 | -69.19302 | 15090 ft | 370 kts | 298° |
| 2026-04-22 11:12 | 18.80100 | -69.21720 | 15844 ft | 373 kts | 298° |
| 2026-04-22 11:12 | 18.81340 | -69.24094 | 16543 ft | 376 kts | 298° |
| 2026-04-22 11:12 | 18.82631 | -69.26550 | 17257 ft | 379 kts | 298° |
| 2026-04-22 11:13 | 18.83905 | -69.28994 | 17949 ft | 381 kts | 297° |
| 2026-04-22 11:13 | 18.85168 | -69.31427 | 18606 ft | 384 kts | 297° |
| 2026-04-22 11:13 | 18.86456 | -69.33912 | 19265 ft | 387 kts | 297° |
| 2026-04-22 11:13 | 18.87751 | -69.36409 | 19890 ft | 389 kts | 297° |
| 2026-04-22 11:14 | 18.89057 | -69.38927 | 20506 ft | 392 kts | 297° |
| 2026-04-22 11:14 | 18.90369 | -69.41461 | 21109 ft | 395 kts | 297° |
| 2026-04-22 11:14 | 18.91693 | -69.44014 | 21726 ft | 397 kts | 296° |
| 2026-04-22 11:14 | 18.93028 | -69.46577 | 22323 ft | 400 kts | 296° |
| 2026-04-22 11:15 | 18.94367 | -69.49155 | 22896 ft | 402 kts | 296° |
| 2026-04-22 11:15 | 18.95711 | -69.51753 | 23460 ft | 404 kts | 296° |
| 2026-04-22 11:15 | 18.97064 | -69.54370 | 23972 ft | 406 kts | 296° |
| 2026-04-22 11:15 | 18.98419 | -69.56998 | 24458 ft | 409 kts | 296° |
| 2026-04-22 11:16 | 18.99785 | -69.59642 | 24928 ft | 411 kts | 296° |
| 2026-04-22 11:16 | 19.01156 | -69.62294 | 25443 ft | 412 kts | 296° |
| 2026-04-22 11:16 | 19.02534 | -69.64957 | 25923 ft | 414 kts | 296° |
| 2026-04-22 11:16 | 19.03921 | -69.67628 | 26382 ft | 415 kts | 296° |
| 2026-04-22 11:17 | 19.05473 | -69.70220 | 26819 ft | 420 kts | 303° |
| 2026-04-22 11:17 | 19.07335 | -69.72618 | 27255 ft | 424 kts | 307° |
| 2026-04-22 11:17 | 19.09269 | -69.74983 | 27668 ft | 426 kts | 307° |
| 2026-04-22 11:17 | 19.11219 | -69.77355 | 28076 ft | 428 kts | 307° |
| 2026-04-22 11:18 | 19.13164 | -69.79735 | 28477 ft | 429 kts | 306° |
| 2026-04-22 11:18 | 19.15120 | -69.82133 | 28916 ft | 429 kts | 306° |
| 2026-04-22 11:18 | 19.17071 | -69.84510 | 29455 ft | 426 kts | 307° |
| 2026-04-22 11:18 | 19.19007 | -69.86878 | 29968 ft | 424 kts | 306° |
| 2026-04-22 11:19 | 19.20923 | -69.89235 | 30493 ft | 422 kts | 306° |
| 2026-04-22 11:19 | 19.22835 | -69.91585 | 30988 ft | 420 kts | 306° |
| 2026-04-22 11:19 | 19.24741 | -69.93921 | 31452 ft | 419 kts | 306° |
| 2026-04-22 11:19 | 19.26644 | -69.96252 | 31878 ft | 419 kts | 306° |
| 2026-04-22 11:20 | 19.28517 | -69.98548 | 32318 ft | 417 kts | 305° |
| 2026-04-22 11:20 | 19.30427 | -70.00906 | 32755 ft | 416 kts | 305° |
| 2026-04-22 11:20 | 19.32288 | -70.03189 | 33193 ft | 414 kts | 305° |
| 2026-04-22 11:20 | 19.34169 | -70.05493 | 33573 ft | 413 kts | 305° |
| 2026-04-22 11:21 | 19.36036 | -70.07805 | 33946 ft | 412 kts | 304° |
| 2026-04-22 11:21 | 19.37896 | -70.10103 | 34323 ft | 411 kts | 304° |
| 2026-04-22 11:21 | 19.39753 | -70.12397 | 34675 ft | 410 kts | 304° |
| 2026-04-22 11:21 | 19.41611 | -70.14685 | 35001 ft | 409 kts | 304° |
| 2026-04-22 11:22 | 19.43459 | -70.16967 | 35280 ft | 409 kts | 304° |
| 2026-04-22 11:22 | 19.45313 | -70.19259 | 35579 ft | 408 kts | 304° |
| 2026-04-22 11:22 | 19.47168 | -70.21535 | 35880 ft | 407 kts | 304° |
| 2026-04-22 11:22 | 19.49018 | -70.23810 | 36031 ft | 407 kts | 304° |
| 2026-04-22 11:23 | 19.50855 | -70.26086 | 36049 ft | 406 kts | 304° |
| 2026-04-22 11:23 | 19.54534 | -70.30616 | 36026 ft | 405 kts | 304° |
| 2026-04-22 11:24 | 19.58198 | -70.35152 | 36020 ft | 405 kts | 304° |
| 2026-04-22 11:24 | 19.61862 | -70.39693 | 36022 ft | 405 kts | 304° |
| 2026-04-22 11:25 | 19.65524 | -70.44237 | 36020 ft | 405 kts | 304° |
| 2026-04-22 11:25 | 19.69195 | -70.48778 | 36020 ft | 405 kts | 304° |
| 2026-04-22 11:26 | 19.72856 | -70.53326 | 36021 ft | 406 kts | 304° |
| 2026-04-22 11:26 | 19.76526 | -70.57876 | 36019 ft | 405 kts | 304° |
| 2026-04-22 11:27 | 19.80187 | -70.62426 | 36020 ft | 405 kts | 304° |
| 2026-04-22 11:27 | 19.83851 | -70.66981 | 36019 ft | 406 kts | 304° |
| 2026-04-22 11:28 | 19.87508 | -70.71553 | 36022 ft | 406 kts | 304° |
| 2026-04-22 11:28 | 19.91174 | -70.76114 | 36020 ft | 406 kts | 304° |
| 2026-04-22 11:29 | 19.94840 | -70.80680 | 36021 ft | 406 kts | 304° |
| 2026-04-22 11:29 | 19.98507 | -70.85242 | 36020 ft | 406 kts | 304° |
| 2026-04-22 11:30 | 20.02139 | -70.89775 | 36022 ft | 404 kts | 304° |
| 2026-04-22 11:30 | 20.05766 | -70.94289 | 36019 ft | 400 kts | 304° |
| 2026-04-22 11:31 | 20.09376 | -70.98799 | 36021 ft | 400 kts | 304° |
| 2026-04-22 11:31 | 20.12981 | -71.03309 | 36022 ft | 400 kts | 304° |
| 2026-04-22 11:32 | 20.16575 | -71.07830 | 36021 ft | 400 kts | 304° |
| 2026-04-22 11:32 | 20.20181 | -71.12348 | 36020 ft | 400 kts | 304° |
| 2026-04-22 11:33 | 20.23793 | -71.16856 | 36015 ft | 401 kts | 304° |
| 2026-04-22 11:33 | 20.27407 | -71.21373 | 36021 ft | 400 kts | 304° |
| 2026-04-22 11:34 | 20.31005 | -71.25897 | 36020 ft | 400 kts | 304° |
| 2026-04-22 11:34 | 20.34597 | -71.30428 | 36020 ft | 400 kts | 304° |
| 2026-04-22 11:35 | 20.38195 | -71.34950 | 36020 ft | 400 kts | 304° |
| 2026-04-22 11:35 | 20.41763 | -71.39497 | 36019 ft | 397 kts | 301° |
| 2026-04-22 11:36 | 20.44856 | -71.44339 | 36020 ft | 395 kts | 298° |
| 2026-04-22 11:36 | 20.47894 | -71.49175 | 36020 ft | 395 kts | 298° |
| 2026-04-22 11:37 | 20.50955 | -71.54040 | 36019 ft | 395 kts | 298° |
| 2026-04-22 11:37 | 20.53997 | -71.58909 | 36026 ft | 395 kts | 298° |
| 2026-04-22 11:38 | 20.57051 | -71.63778 | 36023 ft | 394 kts | 298° |
| 2026-04-22 11:38 | 20.61632 | -71.71067 | 36020 ft | 394 kts | 298° |
| 2026-04-22 11:39 | 20.64185 | -71.75144 | 36020 ft | 394 kts | 298° |
| 2026-04-22 11:39 | 20.67237 | -71.80009 | 36021 ft | 394 kts | 298° |
| 2026-04-22 11:40 | 20.70277 | -71.84875 | 36028 ft | 393 kts | 298° |
| 2026-04-22 11:40 | 20.73316 | -71.89732 | 36030 ft | 393 kts | 298° |
| 2026-04-22 11:41 | 20.76356 | -71.94596 | 36029 ft | 393 kts | 298° |
| 2026-04-22 11:41 | 20.79373 | -71.99428 | 36032 ft | 393 kts | 298° |
| 2026-04-22 11:42 | 20.82409 | -72.04283 | 36032 ft | 393 kts | 298° |
| 2026-04-22 11:42 | 20.85433 | -72.09135 | 36037 ft | 392 kts | 298° |
| 2026-04-22 11:43 | 20.88448 | -72.13987 | 36053 ft | 392 kts | 298° |
| 2026-04-22 11:43 | 20.91471 | -72.18840 | 36036 ft | 391 kts | 298° |
| 2026-04-22 11:44 | 20.94470 | -72.23683 | 36037 ft | 390 kts | 298° |
| 2026-04-22 11:44 | 20.97470 | -72.28525 | 36053 ft | 390 kts | 298° |
| 2026-04-22 11:45 | 21.00466 | -72.33361 | 36069 ft | 390 kts | 298° |
| 2026-04-22 11:45 | 21.03457 | -72.38190 | 36078 ft | 389 kts | 298° |
| 2026-04-22 11:46 | 21.06460 | -72.43008 | 36078 ft | 389 kts | 298° |
| 2026-04-22 11:46 | 21.09461 | -72.47834 | 36079 ft | 389 kts | 298° |
| 2026-04-22 11:47 | 21.12448 | -72.52668 | 36080 ft | 388 kts | 298° |
| 2026-04-22 11:47 | 21.15428 | -72.57499 | 36079 ft | 388 kts | 298° |
| 2026-04-22 11:48 | 21.18412 | -72.62324 | 36081 ft | 388 kts | 298° |
| 2026-04-22 11:48 | 21.21392 | -72.67146 | 36080 ft | 389 kts | 298° |
| 2026-04-22 11:49 | 21.24379 | -72.71980 | 36079 ft | 388 kts | 298° |
| 2026-04-22 11:49 | 21.27349 | -72.76814 | 36080 ft | 388 kts | 298° |
| 2026-04-22 11:50 | 21.30313 | -72.81641 | 36079 ft | 387 kts | 298° |
| 2026-04-22 11:50 | 21.33275 | -72.86468 | 36079 ft | 387 kts | 298° |
| 2026-04-22 11:51 | 21.36233 | -72.91298 | 36080 ft | 387 kts | 298° |
| 2026-04-22 11:51 | 21.39194 | -72.96118 | 36080 ft | 387 kts | 298° |
| 2026-04-22 11:52 | 21.42155 | -73.00942 | 36079 ft | 387 kts | 298° |
| 2026-04-22 11:52 | 21.45092 | -73.05729 | 36080 ft | 387 kts | 298° |
| 2026-04-22 11:53 | 21.48043 | -73.10545 | 36077 ft | 386 kts | 298° |
| 2026-04-22 11:53 | 21.50980 | -73.15363 | 36080 ft | 385 kts | 298° |
| 2026-04-22 11:54 | 21.53926 | -73.20179 | 36081 ft | 386 kts | 298° |
| 2026-04-22 11:54 | 21.56859 | -73.25002 | 36080 ft | 386 kts | 297° |
| 2026-04-22 11:55 | 21.59789 | -73.29826 | 36080 ft | 386 kts | 298° |
| 2026-04-22 11:55 | 21.62723 | -73.34643 | 36081 ft | 385 kts | 298° |
| 2026-04-22 11:56 | 21.65652 | -73.39446 | 36080 ft | 384 kts | 298° |
| 2026-04-22 11:56 | 21.68582 | -73.44249 | 36080 ft | 384 kts | 298° |
| 2026-04-22 11:57 | 21.71505 | -73.49059 | 36080 ft | 384 kts | 298° |
| 2026-04-22 11:57 | 21.74426 | -73.53864 | 36080 ft | 383 kts | 298° |
| 2026-04-22 11:58 | 21.77337 | -73.58664 | 36080 ft | 383 kts | 298° |
| 2026-04-22 11:58 | 21.80244 | -73.63465 | 36095 ft | 383 kts | 298° |
| 2026-04-22 11:59 | 21.83147 | -73.68262 | 36099 ft | 382 kts | 297° |
| 2026-04-22 11:59 | 21.86043 | -73.73053 | 36101 ft | 382 kts | 298° |
| 2026-04-22 12:00 | 21.88933 | -73.77837 | 36108 ft | 381 kts | 298° |
| 2026-04-22 12:00 | 21.91818 | -73.82623 | 36111 ft | 380 kts | 297° |
| 2026-04-22 12:01 | 21.94715 | -73.87395 | 36109 ft | 380 kts | 298° |
| 2026-04-22 12:01 | 21.97603 | -73.92172 | 36110 ft | 380 kts | 297° |
| 2026-04-22 12:02 | 22.00459 | -73.96922 | 36111 ft | 380 kts | 297° |
| 2026-04-22 12:02 | 22.03349 | -74.01737 | 36111 ft | 380 kts | 297° |
| 2026-04-22 12:03 | 22.06231 | -74.06517 | 36117 ft | 380 kts | 298° |
| 2026-04-22 12:03 | 22.09096 | -74.11265 | 36125 ft | 380 kts | 298° |
| 2026-04-22 12:04 | 22.11970 | -74.16050 | 36127 ft | 380 kts | 297° |
| 2026-04-22 12:04 | 22.14837 | -74.20837 | 36120 ft | 380 kts | 297° |
| 2026-04-22 12:05 | 22.17709 | -74.25623 | 36122 ft | 380 kts | 297° |
| 2026-04-22 12:05 | 22.20584 | -74.30413 | 36123 ft | 381 kts | 297° |
| 2026-04-22 12:06 | 22.23454 | -74.35222 | 36134 ft | 381 kts | 297° |
| 2026-04-22 12:06 | 22.26329 | -74.40028 | 36132 ft | 381 kts | 297° |
| 2026-04-22 12:07 | 22.29202 | -74.44837 | 36131 ft | 381 kts | 297° |
| 2026-04-22 12:07 | 22.32075 | -74.49653 | 36135 ft | 381 kts | 297° |
| 2026-04-22 12:08 | 22.34950 | -74.54467 | 36143 ft | 381 kts | 298° |
| 2026-04-22 12:08 | 22.37820 | -74.59284 | 36147 ft | 382 kts | 298° |
| 2026-04-22 12:09 | 22.40687 | -74.64108 | 36148 ft | 381 kts | 298° |
| 2026-04-22 12:09 | 22.43552 | -74.68928 | 36147 ft | 381 kts | 298° |
| 2026-04-22 12:10 | 22.46413 | -74.73745 | 36149 ft | 380 kts | 297° |
| 2026-04-22 12:10 | 22.49268 | -74.78594 | 36157 ft | 383 kts | 298° |
| 2026-04-22 12:11 | 22.52149 | -74.83454 | 36159 ft | 384 kts | 298° |
| 2026-04-22 12:11 | 22.55036 | -74.88305 | 36159 ft | 384 kts | 298° |
| 2026-04-22 12:12 | 22.57909 | -74.93151 | 36161 ft | 384 kts | 298° |
| 2026-04-22 12:12 | 22.60796 | -74.98046 | 36161 ft | 385 kts | 298° |
| 2026-04-22 12:13 | 22.63676 | -75.02921 | 36166 ft | 384 kts | 298° |
| 2026-04-22 12:13 | 22.66545 | -75.07801 | 36170 ft | 384 kts | 298° |
| 2026-04-22 12:14 | 22.69407 | -75.12692 | 36170 ft | 385 kts | 298° |
| 2026-04-22 12:14 | 22.72261 | -75.17545 | 36171 ft | 385 kts | 298° |
| 2026-04-22 12:15 | 22.75132 | -75.22437 | 36169 ft | 385 kts | 298° |
| 2026-04-22 12:15 | 22.78007 | -75.27329 | 36168 ft | 385 kts | 298° |
| 2026-04-22 12:16 | 22.80875 | -75.32221 | 36168 ft | 385 kts | 298° |
| 2026-04-22 12:16 | 22.83744 | -75.37113 | 36171 ft | 384 kts | 298° |
| 2026-04-22 12:17 | 22.86616 | -75.41992 | 36171 ft | 384 kts | 298° |
| 2026-04-22 12:17 | 22.89490 | -75.46885 | 36171 ft | 384 kts | 298° |
| 2026-04-22 12:18 | 22.92352 | -75.51781 | 36171 ft | 385 kts | 298° |
| 2026-04-22 12:18 | 22.95219 | -75.56690 | 36171 ft | 385 kts | 298° |
| 2026-04-22 12:19 | 22.98083 | -75.61605 | 36173 ft | 385 kts | 298° |
| 2026-04-22 12:19 | 23.00941 | -75.66513 | 36171 ft | 385 kts | 298° |
| 2026-04-22 12:20 | 23.03806 | -75.71421 | 36170 ft | 384 kts | 298° |
| 2026-04-22 12:20 | 23.06666 | -75.76332 | 36171 ft | 385 kts | 298° |
| 2026-04-22 12:21 | 23.09507 | -75.81219 | 36170 ft | 385 kts | 298° |
| 2026-04-22 12:21 | 23.12377 | -75.86137 | 36171 ft | 386 kts | 298° |
| 2026-04-22 12:22 | 23.15236 | -75.91058 | 36171 ft | 385 kts | 298° |
| 2026-04-22 12:22 | 23.18081 | -75.95986 | 36171 ft | 384 kts | 298° |
| 2026-04-22 12:23 | 23.20925 | -76.00900 | 36167 ft | 384 kts | 298° |
| 2026-04-22 12:23 | 23.23775 | -76.05826 | 36171 ft | 385 kts | 298° |
| 2026-04-22 12:24 | 23.26613 | -76.10751 | 36169 ft | 384 kts | 298° |
| 2026-04-22 12:24 | 23.29484 | -76.15659 | 36168 ft | 384 kts | 299° |
| 2026-04-22 12:25 | 23.32339 | -76.20580 | 36174 ft | 384 kts | 298° |
| 2026-04-22 12:25 | 23.35173 | -76.25507 | 36177 ft | 384 kts | 298° |
| 2026-04-22 12:26 | 23.37536 | -76.29603 | 36182 ft | 384 kts | 298° |
| 2026-04-22 12:26 | 23.40366 | -76.34534 | 36185 ft | 384 kts | 298° |
| 2026-04-22 12:27 | 23.43206 | -76.39456 | 36184 ft | 384 kts | 298° |
| 2026-04-22 12:27 | 23.46037 | -76.44387 | 36181 ft | 384 kts | 298° |
| 2026-04-22 12:28 | 23.48869 | -76.49318 | 36181 ft | 384 kts | 298° |
| 2026-04-22 12:28 | 23.51696 | -76.54251 | 36185 ft | 384 kts | 298° |
| 2026-04-22 12:29 | 23.54522 | -76.59188 | 36184 ft | 384 kts | 298° |
| 2026-04-22 12:29 | 23.57346 | -76.64119 | 36180 ft | 384 kts | 298° |
| 2026-04-22 12:30 | 23.61580 | -76.71524 | 36178 ft | 384 kts | 298° |
| 2026-04-22 12:31 | 23.64402 | -76.76467 | 36182 ft | 384 kts | 298° |
| 2026-04-22 12:31 | 23.67222 | -76.81419 | 36180 ft | 384 kts | 298° |
| 2026-04-22 12:32 | 23.70044 | -76.86366 | 36184 ft | 384 kts | 298° |
| 2026-04-22 12:32 | 23.74273 | -76.93798 | 36178 ft | 384 kts | 298° |
| 2026-04-22 12:33 | 23.77084 | -76.98750 | 36182 ft | 384 kts | 298° |
| 2026-04-22 12:33 | 23.79896 | -77.03698 | 36182 ft | 383 kts | 298° |
| 2026-04-22 12:34 | 23.82704 | -77.08649 | 36191 ft | 383 kts | 298° |
| 2026-04-22 12:34 | 23.85509 | -77.13601 | 36187 ft | 383 kts | 298° |
| 2026-04-22 12:35 | 23.88312 | -77.18556 | 36213 ft | 383 kts | 298° |
| 2026-04-22 12:35 | 23.91099 | -77.23476 | 36219 ft | 383 kts | 298° |
| 2026-04-22 12:36 | 23.93892 | -77.28429 | 36219 ft | 382 kts | 298° |
| 2026-04-22 12:36 | 23.96682 | -77.33382 | 36221 ft | 382 kts | 298° |
| 2026-04-22 12:37 | 23.99463 | -77.38335 | 36228 ft | 382 kts | 298° |
| 2026-04-22 12:37 | 24.02230 | -77.43290 | 36229 ft | 382 kts | 298° |
| 2026-04-22 12:38 | 24.05006 | -77.48245 | 36230 ft | 382 kts | 298° |
| 2026-04-22 12:38 | 24.07784 | -77.53193 | 36239 ft | 382 kts | 298° |
| 2026-04-22 12:39 | 24.11981 | -77.60603 | 36239 ft | 382 kts | 298° |
| 2026-04-22 12:40 | 24.14765 | -77.65545 | 36241 ft | 382 kts | 298° |
| 2026-04-22 12:40 | 24.17545 | -77.70502 | 36241 ft | 382 kts | 298° |
| 2026-04-22 12:41 | 24.20311 | -77.75464 | 36240 ft | 382 kts | 298° |
| 2026-04-22 12:41 | 24.23065 | -77.80431 | 36239 ft | 382 kts | 298° |
| 2026-04-22 12:42 | 24.25837 | -77.85392 | 36240 ft | 382 kts | 298° |
| 2026-04-22 12:42 | 24.28727 | -77.90281 | 36240 ft | 382 kts | 300° |
| 2026-04-22 12:43 | 24.31697 | -77.95120 | 36243 ft | 383 kts | 300° |
| 2026-04-22 12:43 | 24.34688 | -77.99950 | 36241 ft | 383 kts | 301° |
| 2026-04-22 12:44 | 24.37678 | -78.04778 | 36241 ft | 383 kts | 300° |
| 2026-04-22 12:44 | 24.40633 | -78.09583 | 36240 ft | 383 kts | 300° |
| 2026-04-22 12:45 | 24.43604 | -78.14429 | 36238 ft | 383 kts | 300° |
| 2026-04-22 12:45 | 24.46571 | -78.19273 | 36239 ft | 382 kts | 300° |
| 2026-04-22 12:46 | 24.49535 | -78.24125 | 36240 ft | 383 kts | 300° |
| 2026-04-22 12:46 | 24.52498 | -78.28973 | 36241 ft | 382 kts | 300° |
| 2026-04-22 12:47 | 24.55461 | -78.33820 | 36240 ft | 382 kts | 300° |
| 2026-04-22 12:47 | 24.58427 | -78.38678 | 36242 ft | 383 kts | 300° |
| 2026-04-22 12:48 | 24.61389 | -78.43545 | 36240 ft | 383 kts | 300° |
| 2026-04-22 12:48 | 24.64358 | -78.48414 | 36240 ft | 383 kts | 300° |
| 2026-04-22 12:49 | 24.67318 | -78.53281 | 36240 ft | 383 kts | 300° |
| 2026-04-22 12:49 | 24.70269 | -78.58140 | 36242 ft | 379 kts | 300° |
| 2026-04-22 12:50 | 24.73177 | -78.62932 | 36250 ft | 380 kts | 300° |
| 2026-04-22 12:50 | 24.76126 | -78.67802 | 36254 ft | 383 kts | 300° |
| 2026-04-22 12:51 | 24.79063 | -78.72650 | 36247 ft | 384 kts | 300° |
| 2026-04-22 12:51 | 24.82005 | -78.77505 | 35952 ft | 380 kts | 300° |
| 2026-04-22 12:51 | 24.83470 | -78.79931 | 35608 ft | 380 kts | 300° |
| 2026-04-22 12:52 | 24.84930 | -78.82345 | 35138 ft | 376 kts | 300° |
| 2026-04-22 12:52 | 24.86376 | -78.84737 | 34619 ft | 374 kts | 301° |
| 2026-04-22 12:52 | 24.87809 | -78.87108 | 34084 ft | 372 kts | 301° |
| 2026-04-22 12:52 | 24.89238 | -78.89475 | 33528 ft | 370 kts | 301° |
| 2026-04-22 12:53 | 24.90659 | -78.91833 | 32958 ft | 368 kts | 301° |
| 2026-04-22 12:53 | 24.92079 | -78.94187 | 32369 ft | 370 kts | 300° |
| 2026-04-22 12:53 | 24.93506 | -78.96556 | 31771 ft | 373 kts | 300° |
| 2026-04-22 12:53 | 24.94945 | -78.98946 | 31199 ft | 376 kts | 300° |
| 2026-04-22 12:54 | 24.96397 | -79.01358 | 30676 ft | 377 kts | 300° |
| 2026-04-22 12:54 | 24.97843 | -79.03759 | 30183 ft | 376 kts | 300° |
| 2026-04-22 12:54 | 24.99288 | -79.06162 | 29676 ft | 375 kts | 300° |
| 2026-04-22 12:54 | 25.00724 | -79.08551 | 29162 ft | 374 kts | 300° |
| 2026-04-22 12:55 | 25.02156 | -79.10937 | 28667 ft | 372 kts | 301° |
| 2026-04-22 12:55 | 25.03578 | -79.13310 | 28186 ft | 370 kts | 301° |
| 2026-04-22 12:55 | 25.04999 | -79.15677 | 27701 ft | 369 kts | 301° |
| 2026-04-22 12:55 | 25.06409 | -79.18026 | 27204 ft | 367 kts | 301° |
| 2026-04-22 12:56 | 25.07816 | -79.20369 | 26699 ft | 366 kts | 301° |
| 2026-04-22 12:56 | 25.09219 | -79.22707 | 26194 ft | 364 kts | 301° |
| 2026-04-22 12:56 | 25.10612 | -79.25032 | 25705 ft | 363 kts | 301° |
| 2026-04-22 12:56 | 25.12002 | -79.27354 | 25224 ft | 361 kts | 301° |
| 2026-04-22 12:57 | 25.13386 | -79.29666 | 24709 ft | 361 kts | 302° |
| 2026-04-22 12:57 | 25.14762 | -79.31973 | 24199 ft | 359 kts | 301° |
| 2026-04-22 12:57 | 25.16117 | -79.34276 | 23705 ft | 358 kts | 301° |
| 2026-04-22 12:57 | 25.17473 | -79.36570 | 23217 ft | 356 kts | 302° |
| 2026-04-22 12:58 | 25.18830 | -79.38854 | 22735 ft | 355 kts | 302° |
| 2026-04-22 12:58 | 25.20179 | -79.41124 | 22259 ft | 353 kts | 302° |
| 2026-04-22 12:58 | 25.21520 | -79.43379 | 21776 ft | 351 kts | 302° |
| 2026-04-22 12:58 | 25.22858 | -79.45620 | 21294 ft | 349 kts | 302° |
| 2026-04-22 12:59 | 25.24186 | -79.47847 | 20826 ft | 346 kts | 302° |
| 2026-04-22 12:59 | 25.25508 | -79.50061 | 20371 ft | 343 kts | 302° |
| 2026-04-22 12:59 | 25.26818 | -79.52254 | 19945 ft | 341 kts | 302° |
| 2026-04-22 12:59 | 25.28118 | -79.54438 | 19519 ft | 339 kts | 302° |
| 2026-04-22 13:00 | 25.29415 | -79.56606 | 19107 ft | 338 kts | 302° |
| 2026-04-22 13:00 | 25.30706 | -79.58772 | 18702 ft | 337 kts | 302° |
| 2026-04-22 13:00 | 25.32002 | -79.60926 | 18316 ft | 336 kts | 302° |
| 2026-04-22 13:00 | 25.33297 | -79.63086 | 17915 ft | 337 kts | 302° |
| 2026-04-22 13:01 | 25.34583 | -79.65242 | 17432 ft | 335 kts | 302° |
| 2026-04-22 13:01 | 25.35853 | -79.67380 | 16960 ft | 332 kts | 302° |
| 2026-04-22 13:01 | 25.37126 | -79.69522 | 16531 ft | 334 kts | 302° |
| 2026-04-22 13:01 | 25.38399 | -79.71670 | 16119 ft | 334 kts | 302° |
| 2026-04-22 13:02 | 25.39716 | -79.73788 | 15711 ft | 335 kts | 304° |